sensor_id;sensor_type;location;lat;lon;timestamp;temperature;humidity
20463;DHT22;10390;53.566;9.980;2023-07-28T00:01:28;27.20;1.00
20463;DHT22;10390;53.566;9.980;2023-07-28T00:03:54;27.20;1.00
20463;DHT22;10390;53.566;9.980;2023-07-28T00:06:19;27.20;1.00
20463;DHT22;10390;53.566;9.980;2023-07-28T00:08:45;27.20;1.00
20463;DHT22;10390;53.566;9.980;2023-07-28T00:11:11;27.20;1.00
20463;DHT22;10390;53.566;9.980;2023-07-28T00:13:40;27.10;1.00
20463;DHT22;10390;53.566;9.980;2023-07-28T00:16:06;27.20;1.00
20463;DHT22;10390;53.566;9.980;2023-07-28T00:18:32;27.20;1.00
20463;DHT22;10390;53.566;9.980;2023-07-28T00:20:57;27.20;1.00
20463;DHT22;10390;53.566;9.980;2023-07-28T00:23:23;27.20;1.00
20463;DHT22;10390;53.566;9.980;2023-07-28T00:25:49;27.20;1.00
20463;DHT22;10390;53.566;9.980;2023-07-28T00:28:14;27.20;1.00
20463;DHT22;10390;53.566;9.980;2023-07-28T00:30:40;27.20;1.00
20463;DHT22;10390;53.566;9.980;2023-07-28T00:33:06;27.20;1.00
20463;DHT22;10390;53.566;9.980;2023-07-28T00:35:32;27.20;1.00
20463;DHT22;10390;53.566;9.980;2023-07-28T00:37:57;27.20;1.00
20463;DHT22;10390;53.566;9.980;2023-07-28T00:40:23;27.10;1.00
20463;DHT22;10390;53.566;9.980;2023-07-28T00:42:49;27.20;1.00
20463;DHT22;10390;53.566;9.980;2023-07-28T00:45:15;27.20;1.00
20463;DHT22;10390;53.566;9.980;2023-07-28T00:47:41;27.20;1.00
20463;DHT22;10390;53.566;9.980;2023-07-28T00:50:08;27.10;1.00
20463;DHT22;10390;53.566;9.980;2023-07-28T00:52:34;27.10;1.00
20463;DHT22;10390;53.566;9.980;2023-07-28T00:55:00;27.10;1.00
20463;DHT22;10390;53.566;9.980;2023-07-28T00:57:26;27.10;1.00
20463;DHT22;10390;53.566;9.980;2023-07-28T00:59:51;27.20;1.00
20463;DHT22;10390;53.566;9.980;2023-07-28T01:02:19;27.10;1.00
20463;DHT22;10390;53.566;9.980;2023-07-28T01:04:45;27.10;1.00
20463;DHT22;10390;53.566;9.980;2023-07-28T01:07:19;27.10;1.00
20463;DHT22;10390;53.566;9.980;2023-07-28T01:10:07;27.10;1.00
20463;DHT22;10390;53.566;9.980;2023-07-28T01:12:33;27.10;1.00
20463;DHT22;10390;53.566;9.980;2023-07-28T01:14:59;27.10;1.00
20463;DHT22;10390;53.566;9.980;2023-07-28T01:17:25;27.10;1.00
20463;DHT22;10390;53.566;9.980;2023-07-28T01:19:51;27.10;1.00
20463;DHT22;10390;53.566;9.980;2023-07-28T01:25:09;27.10;1.00
20463;DHT22;10390;53.566;9.980;2023-07-28T01:27:39;27.10;1.00
20463;DHT22;10390;53.566;9.980;2023-07-28T01:30:08;27.10;1.00
20463;DHT22;10390;53.566;9.980;2023-07-28T01:32:35;27.10;1.00
20463;DHT22;10390;53.566;9.980;2023-07-28T01:35:04;27.10;1.00
20463;DHT22;10390;53.566;9.980;2023-07-28T01:37:30;27.10;1.00
20463;DHT22;10390;53.566;9.980;2023-07-28T01:39:56;27.10;1.00
20463;DHT22;10390;53.566;9.980;2023-07-28T01:42:23;27.10;1.00
20463;DHT22;10390;53.566;9.980;2023-07-28T01:44:49;27.10;1.00
20463;DHT22;10390;53.566;9.980;2023-07-28T01:47:15;27.10;1.00
20463;DHT22;10390;53.566;9.980;2023-07-28T01:49:40;27.10;1.00
20463;DHT22;10390;53.566;9.980;2023-07-28T01:52:06;27.10;1.00
20463;DHT22;10390;53.566;9.980;2023-07-28T01:54:32;27.10;1.00
20463;DHT22;10390;53.566;9.980;2023-07-28T01:56:57;27.10;1.00
20463;DHT22;10390;53.566;9.980;2023-07-28T01:59:23;27.10;1.00
20463;DHT22;10390;53.566;9.980;2023-07-28T02:01:48;27.10;1.00
20463;DHT22;10390;53.566;9.980;2023-07-28T02:04:14;27.10;1.00
20463;DHT22;10390;53.566;9.980;2023-07-28T02:06:41;27.10;1.00
20463;DHT22;10390;53.566;9.980;2023-07-28T02:09:06;27.10;1.00
20463;DHT22;10390;53.566;9.980;2023-07-28T02:11:32;27.10;1.00
20463;DHT22;10390;53.566;9.980;2023-07-28T02:13:57;27.10;1.00
20463;DHT22;10390;53.566;9.980;2023-07-28T02:16:24;27.10;1.00
20463;DHT22;10390;53.566;9.980;2023-07-28T02:18:49;27.10;1.00
20463;DHT22;10390;53.566;9.980;2023-07-28T02:21:15;27.10;1.00
20463;DHT22;10390;53.566;9.980;2023-07-28T02:23:41;27.10;1.00
20463;DHT22;10390;53.566;9.980;2023-07-28T02:26:06;27.10;1.00
20463;DHT22;10390;53.566;9.980;2023-07-28T02:28:32;27.10;1.00
20463;DHT22;10390;53.566;9.980;2023-07-28T02:30:57;27.10;1.00
20463;DHT22;10390;53.566;9.980;2023-07-28T02:33:23;27.10;1.00
20463;DHT22;10390;53.566;9.980;2023-07-28T02:35:48;27.10;1.00
20463;DHT22;10390;53.566;9.980;2023-07-28T02:38:14;27.10;1.00
20463;DHT22;10390;53.566;9.980;2023-07-28T02:40:39;27.10;1.00
20463;DHT22;10390;53.566;9.980;2023-07-28T02:43:05;27.10;1.00
20463;DHT22;10390;53.566;9.980;2023-07-28T02:45:30;27.10;1.00
20463;DHT22;10390;53.566;9.980;2023-07-28T02:47:56;27.10;1.00
20463;DHT22;10390;53.566;9.980;2023-07-28T02:50:22;27.10;1.00
20463;DHT22;10390;53.566;9.980;2023-07-28T02:52:48;27.10;1.00
20463;DHT22;10390;53.566;9.980;2023-07-28T02:55:14;27.10;1.00
20463;DHT22;10390;53.566;9.980;2023-07-28T02:57:39;27.10;1.00
20463;DHT22;10390;53.566;9.980;2023-07-28T03:00:05;27.10;1.00
20463;DHT22;10390;53.566;9.980;2023-07-28T03:02:33;27.10;1.00
20463;DHT22;10390;53.566;9.980;2023-07-28T03:04:58;27.10;1.00
20463;DHT22;10390;53.566;9.980;2023-07-28T03:07:24;27.10;1.00
20463;DHT22;10390;53.566;9.980;2023-07-28T03:09:49;27.00;1.00
20463;DHT22;10390;53.566;9.980;2023-07-28T03:12:15;27.00;1.00
20463;DHT22;10390;53.566;9.980;2023-07-28T03:14:40;27.00;1.00
20463;DHT22;10390;53.566;9.980;2023-07-28T03:17:06;27.00;1.00
20463;DHT22;10390;53.566;9.980;2023-07-28T03:19:31;27.10;1.00
20463;DHT22;10390;53.566;9.980;2023-07-28T03:21:57;27.10;1.00
20463;DHT22;10390;53.566;9.980;2023-07-28T03:24:23;27.00;1.00
20463;DHT22;10390;53.566;9.980;2023-07-28T03:26:48;27.00;1.00
20463;DHT22;10390;53.566;9.980;2023-07-28T03:29:14;27.10;1.00
20463;DHT22;10390;53.566;9.980;2023-07-28T03:31:39;27.10;1.00
20463;DHT22;10390;53.566;9.980;2023-07-28T03:34:05;27.00;1.00
20463;DHT22;10390;53.566;9.980;2023-07-28T03:36:30;27.00;1.00
20463;DHT22;10390;53.566;9.980;2023-07-28T03:38:56;27.00;1.00
20463;DHT22;10390;53.566;9.980;2023-07-28T03:41:22;27.00;1.00
20463;DHT22;10390;53.566;9.980;2023-07-28T03:43:47;27.00;1.00
20463;DHT22;10390;53.566;9.980;2023-07-28T03:46:13;27.00;1.00
20463;DHT22;10390;53.566;9.980;2023-07-28T03:48:38;27.00;1.00
20463;DHT22;10390;53.566;9.980;2023-07-28T03:51:04;27.00;1.00
20463;DHT22;10390;53.566;9.980;2023-07-28T03:53:30;27.00;1.00
20463;DHT22;10390;53.566;9.980;2023-07-28T03:55:55;27.00;1.00
20463;DHT22;10390;53.566;9.980;2023-07-28T03:58:24;27.00;1.00
20463;DHT22;10390;53.566;9.980;2023-07-28T04:00:51;27.00;1.00
20463;DHT22;10390;53.566;9.980;2023-07-28T04:03:17;27.10;1.00
20463;DHT22;10390;53.566;9.980;2023-07-28T04:05:43;27.00;1.00
20463;DHT22;10390;53.566;9.980;2023-07-28T04:08:08;27.00;1.00
20463;DHT22;10390;53.566;9.980;2023-07-28T04:10:34;27.00;1.00
20463;DHT22;10390;53.566;9.980;2023-07-28T04:12:59;27.00;1.00
20463;DHT22;10390;53.566;9.980;2023-07-28T04:15:25;27.00;1.00
20463;DHT22;10390;53.566;9.980;2023-07-28T04:17:50;27.00;1.00
20463;DHT22;10390;53.566;9.980;2023-07-28T04:20:16;27.00;1.00
20463;DHT22;10390;53.566;9.980;2023-07-28T04:22:42;27.00;1.00
20463;DHT22;10390;53.566;9.980;2023-07-28T04:25:07;27.00;1.00
20463;DHT22;10390;53.566;9.980;2023-07-28T04:27:33;27.00;1.00
20463;DHT22;10390;53.566;9.980;2023-07-28T04:29:58;27.00;1.00
20463;DHT22;10390;53.566;9.980;2023-07-28T04:32:24;27.00;1.00
20463;DHT22;10390;53.566;9.980;2023-07-28T04:34:51;27.00;1.00
20463;DHT22;10390;53.566;9.980;2023-07-28T04:37:17;27.00;1.00
20463;DHT22;10390;53.566;9.980;2023-07-28T04:39:43;27.00;1.00
20463;DHT22;10390;53.566;9.980;2023-07-28T04:42:08;27.00;1.00
20463;DHT22;10390;53.566;9.980;2023-07-28T04:44:37;27.00;1.00
20463;DHT22;10390;53.566;9.980;2023-07-28T04:47:03;27.00;1.00
20463;DHT22;10390;53.566;9.980;2023-07-28T04:49:29;27.00;1.00
20463;DHT22;10390;53.566;9.980;2023-07-28T04:51:54;27.00;1.00
20463;DHT22;10390;53.566;9.980;2023-07-28T04:54:20;27.00;1.00
20463;DHT22;10390;53.566;9.980;2023-07-28T04:56:45;27.00;1.00
20463;DHT22;10390;53.566;9.980;2023-07-28T04:59:11;27.00;1.00
20463;DHT22;10390;53.566;9.980;2023-07-28T05:01:37;27.00;1.00
20463;DHT22;10390;53.566;9.980;2023-07-28T05:04:02;27.00;1.00
20463;DHT22;10390;53.566;9.980;2023-07-28T05:06:28;27.00;1.00
20463;DHT22;10390;53.566;9.980;2023-07-28T05:08:54;27.00;1.00
20463;DHT22;10390;53.566;9.980;2023-07-28T05:11:19;27.00;1.00
20463;DHT22;10390;53.566;9.980;2023-07-28T05:13:45;27.00;1.00
20463;DHT22;10390;53.566;9.980;2023-07-28T05:16:10;27.00;1.00
20463;DHT22;10390;53.566;9.980;2023-07-28T05:18:36;27.00;1.00
20463;DHT22;10390;53.566;9.980;2023-07-28T05:21:02;27.00;1.00
20463;DHT22;10390;53.566;9.980;2023-07-28T05:23:28;27.00;1.00
20463;DHT22;10390;53.566;9.980;2023-07-28T05:25:53;27.00;1.00
20463;DHT22;10390;53.566;9.980;2023-07-28T05:28:19;27.00;1.00
20463;DHT22;10390;53.566;9.980;2023-07-28T05:30:44;27.00;1.00
20463;DHT22;10390;53.566;9.980;2023-07-28T05:33:10;27.00;1.00
20463;DHT22;10390;53.566;9.980;2023-07-28T05:35:36;27.00;1.00
20463;DHT22;10390;53.566;9.980;2023-07-28T05:38:01;27.00;1.00
20463;DHT22;10390;53.566;9.980;2023-07-28T05:40:27;27.00;1.00
20463;DHT22;10390;53.566;9.980;2023-07-28T05:42:52;27.00;1.00
20463;DHT22;10390;53.566;9.980;2023-07-28T05:45:18;27.00;1.00
20463;DHT22;10390;53.566;9.980;2023-07-28T05:47:44;27.00;1.00
20463;DHT22;10390;53.566;9.980;2023-07-28T05:50:09;27.00;1.00
20463;DHT22;10390;53.566;9.980;2023-07-28T05:52:35;27.00;1.00
20463;DHT22;10390;53.566;9.980;2023-07-28T05:55:01;27.00;1.00
20463;DHT22;10390;53.566;9.980;2023-07-28T05:57:26;27.00;1.00
20463;DHT22;10390;53.566;9.980;2023-07-28T05:59:52;27.10;1.00
20463;DHT22;10390;53.566;9.980;2023-07-28T06:02:17;27.00;1.00
20463;DHT22;10390;53.566;9.980;2023-07-28T06:04:43;27.10;1.00
20463;DHT22;10390;53.566;9.980;2023-07-28T06:07:09;27.10;1.00
20463;DHT22;10390;53.566;9.980;2023-07-28T06:09:35;27.00;1.00
20463;DHT22;10390;53.566;9.980;2023-07-28T06:12:01;27.10;1.00
20463;DHT22;10390;53.566;9.980;2023-07-28T06:14:26;27.10;1.00
20463;DHT22;10390;53.566;9.980;2023-07-28T06:16:52;27.10;1.00
20463;DHT22;10390;53.566;9.980;2023-07-28T06:19:17;27.10;1.00
20463;DHT22;10390;53.566;9.980;2023-07-28T06:21:49;27.10;1.00
20463;DHT22;10390;53.566;9.980;2023-07-28T06:24:16;27.10;1.00
20463;DHT22;10390;53.566;9.980;2023-07-28T06:26:41;27.10;1.00
20463;DHT22;10390;53.566;9.980;2023-07-28T06:29:07;27.10;1.00
20463;DHT22;10390;53.566;9.980;2023-07-28T06:31:32;27.10;1.00
20463;DHT22;10390;53.566;9.980;2023-07-28T06:33:58;27.10;1.00
20463;DHT22;10390;53.566;9.980;2023-07-28T06:36:24;27.10;1.00
20463;DHT22;10390;53.566;9.980;2023-07-28T06:38:49;27.10;1.00
20463;DHT22;10390;53.566;9.980;2023-07-28T06:41:17;27.10;1.00
20463;DHT22;10390;53.566;9.980;2023-07-28T06:43:43;27.10;1.00
20463;DHT22;10390;53.566;9.980;2023-07-28T06:46:08;27.10;1.00
20463;DHT22;10390;53.566;9.980;2023-07-28T06:48:34;27.10;1.00
20463;DHT22;10390;53.566;9.980;2023-07-28T06:50:59;27.10;1.00
20463;DHT22;10390;53.566;9.980;2023-07-28T06:53:25;27.10;1.00
20463;DHT22;10390;53.566;9.980;2023-07-28T06:55:51;27.10;1.00
20463;DHT22;10390;53.566;9.980;2023-07-28T06:58:16;27.10;1.00
20463;DHT22;10390;53.566;9.980;2023-07-28T07:00:42;27.10;1.00
20463;DHT22;10390;53.566;9.980;2023-07-28T07:03:08;27.10;1.00
20463;DHT22;10390;53.566;9.980;2023-07-28T07:05:34;27.20;1.00
20463;DHT22;10390;53.566;9.980;2023-07-28T07:07:59;27.20;1.00
20463;DHT22;10390;53.566;9.980;2023-07-28T07:10:27;27.10;1.00
20463;DHT22;10390;53.566;9.980;2023-07-28T07:12:52;27.20;1.00
20463;DHT22;10390;53.566;9.980;2023-07-28T07:15:18;27.20;1.00
20463;DHT22;10390;53.566;9.980;2023-07-28T07:17:43;27.20;1.00
20463;DHT22;10390;53.566;9.980;2023-07-28T07:20:09;27.20;1.00
20463;DHT22;10390;53.566;9.980;2023-07-28T07:22:36;27.20;1.00
20463;DHT22;10390;53.566;9.980;2023-07-28T07:25:03;27.20;1.00
20463;DHT22;10390;53.566;9.980;2023-07-28T07:27:29;27.20;1.00
20463;DHT22;10390;53.566;9.980;2023-07-28T07:29:55;27.20;1.00
20463;DHT22;10390;53.566;9.980;2023-07-28T07:32:20;27.20;1.00
20463;DHT22;10390;53.566;9.980;2023-07-28T07:34:46;27.20;1.00
20463;DHT22;10390;53.566;9.980;2023-07-28T07:37:12;27.20;1.00
20463;DHT22;10390;53.566;9.980;2023-07-28T07:39:38;27.20;1.00
20463;DHT22;10390;53.566;9.980;2023-07-28T07:42:03;27.20;1.00
20463;DHT22;10390;53.566;9.980;2023-07-28T07:44:30;27.20;1.00
20463;DHT22;10390;53.566;9.980;2023-07-28T07:46:58;27.20;1.00
20463;DHT22;10390;53.566;9.980;2023-07-28T07:49:24;27.20;1.00
20463;DHT22;10390;53.566;9.980;2023-07-28T07:51:50;27.20;1.00
20463;DHT22;10390;53.566;9.980;2023-07-28T07:54:15;27.20;1.00
20463;DHT22;10390;53.566;9.980;2023-07-28T07:56:44;27.20;1.00
20463;DHT22;10390;53.566;9.980;2023-07-28T07:59:09;27.30;1.00
20463;DHT22;10390;53.566;9.980;2023-07-28T08:01:35;27.20;1.00
20463;DHT22;10390;53.566;9.980;2023-07-28T08:04:00;27.30;1.00
20463;DHT22;10390;53.566;9.980;2023-07-28T08:06:27;27.30;1.00
20463;DHT22;10390;53.566;9.980;2023-07-28T08:08:52;27.30;1.00
20463;DHT22;10390;53.566;9.980;2023-07-28T08:11:19;27.30;1.00
20463;DHT22;10390;53.566;9.980;2023-07-28T08:13:44;27.30;1.00
20463;DHT22;10390;53.566;9.980;2023-07-28T08:16:10;27.30;1.00
20463;DHT22;10390;53.566;9.980;2023-07-28T08:18:36;27.30;1.00
20463;DHT22;10390;53.566;9.980;2023-07-28T08:21:02;27.30;1.00
20463;DHT22;10390;53.566;9.980;2023-07-28T08:23:27;27.30;1.00
20463;DHT22;10390;53.566;9.980;2023-07-28T08:25:53;27.30;1.00
20463;DHT22;10390;53.566;9.980;2023-07-28T08:28:19;27.30;1.00
20463;DHT22;10390;53.566;9.980;2023-07-28T08:30:44;27.30;1.00
20463;DHT22;10390;53.566;9.980;2023-07-28T08:33:10;27.30;1.00
20463;DHT22;10390;53.566;9.980;2023-07-28T08:35:35;27.30;1.00
20463;DHT22;10390;53.566;9.980;2023-07-28T08:38:01;27.30;1.00
20463;DHT22;10390;53.566;9.980;2023-07-28T08:40:26;27.30;1.00
20463;DHT22;10390;53.566;9.980;2023-07-28T08:42:53;27.30;1.00
20463;DHT22;10390;53.566;9.980;2023-07-28T08:45:19;27.30;1.00
20463;DHT22;10390;53.566;9.980;2023-07-28T08:47:45;27.40;1.00
20463;DHT22;10390;53.566;9.980;2023-07-28T08:50:10;27.30;1.00
20463;DHT22;10390;53.566;9.980;2023-07-28T08:52:36;27.30;1.00
20463;DHT22;10390;53.566;9.980;2023-07-28T08:55:02;27.40;1.00
20463;DHT22;10390;53.566;9.980;2023-07-28T08:57:28;27.30;1.00
20463;DHT22;10390;53.566;9.980;2023-07-28T08:59:54;27.30;1.00
20463;DHT22;10390;53.566;9.980;2023-07-28T09:02:20;27.30;1.00
20463;DHT22;10390;53.566;9.980;2023-07-28T09:04:48;27.40;1.00
20463;DHT22;10390;53.566;9.980;2023-07-28T09:07:14;27.30;1.00
20463;DHT22;10390;53.566;9.980;2023-07-28T09:09:40;27.40;1.00
20463;DHT22;10390;53.566;9.980;2023-07-28T09:12:06;27.40;1.00
20463;DHT22;10390;53.566;9.980;2023-07-28T09:14:35;27.30;1.00
20463;DHT22;10390;53.566;9.980;2023-07-28T09:19:33;27.30;1.00
20463;DHT22;10390;53.566;9.980;2023-07-28T09:22:00;27.30;1.00
20463;DHT22;10390;53.566;9.980;2023-07-28T09:24:33;27.30;1.00
20463;DHT22;10390;53.566;9.980;2023-07-28T09:27:00;27.30;1.00
20463;DHT22;10390;53.566;9.980;2023-07-28T09:29:27;27.40;1.00
20463;DHT22;10390;53.566;9.980;2023-07-28T09:32:05;27.40;1.00
20463;DHT22;10390;53.566;9.980;2023-07-28T09:34:31;27.40;1.00
20463;DHT22;10390;53.566;9.980;2023-07-28T09:36:59;27.30;1.00
20463;DHT22;10390;53.566;9.980;2023-07-28T09:39:25;27.40;1.00
20463;DHT22;10390;53.566;9.980;2023-07-28T09:41:51;27.40;1.00
20463;DHT22;10390;53.566;9.980;2023-07-28T09:44:17;27.30;1.00
20463;DHT22;10390;53.566;9.980;2023-07-28T09:46:53;27.40;1.00
20463;DHT22;10390;53.566;9.980;2023-07-28T09:49:36;27.40;1.00
20463;DHT22;10390;53.566;9.980;2023-07-28T09:52:08;27.40;1.00
20463;DHT22;10390;53.566;9.980;2023-07-28T09:54:39;27.40;1.00
20463;DHT22;10390;53.566;9.980;2023-07-28T09:57:09;27.40;1.00
20463;DHT22;10390;53.566;9.980;2023-07-28T09:59:39;27.40;1.00
20463;DHT22;10390;53.566;9.980;2023-07-28T10:02:05;27.40;1.00
20463;DHT22;10390;53.566;9.980;2023-07-28T10:04:32;27.40;1.00
20463;DHT22;10390;53.566;9.980;2023-07-28T10:06:58;27.40;1.00
20463;DHT22;10390;53.566;9.980;2023-07-28T10:09:25;27.40;1.00
20463;DHT22;10390;53.566;9.980;2023-07-28T10:11:51;27.40;1.00
20463;DHT22;10390;53.566;9.980;2023-07-28T10:14:31;27.40;1.00
20463;DHT22;10390;53.566;9.980;2023-07-28T10:16:58;27.40;1.00
20463;DHT22;10390;53.566;9.980;2023-07-28T10:19:27;27.40;1.00
20463;DHT22;10390;53.566;9.980;2023-07-28T10:22:07;27.40;1.00
20463;DHT22;10390;53.566;9.980;2023-07-28T10:24:52;27.40;1.00
20463;DHT22;10390;53.566;9.980;2023-07-28T10:27:38;27.40;1.00
20463;DHT22;10390;53.566;9.980;2023-07-28T10:30:09;27.40;1.00
20463;DHT22;10390;53.566;9.980;2023-07-28T10:32:44;27.40;1.00
20463;DHT22;10390;53.566;9.980;2023-07-28T10:37:39;27.40;1.00
20463;DHT22;10390;53.566;9.980;2023-07-28T10:42:50;27.40;1.00
20463;DHT22;10390;53.566;9.980;2023-07-28T10:45:16;27.40;1.00
20463;DHT22;10390;53.566;9.980;2023-07-28T10:47:42;27.40;1.00
20463;DHT22;10390;53.566;9.980;2023-07-28T10:50:12;27.40;1.00
20463;DHT22;10390;53.566;9.980;2023-07-28T10:52:44;27.40;1.00
20463;DHT22;10390;53.566;9.980;2023-07-28T10:55:15;27.40;1.00
20463;DHT22;10390;53.566;9.980;2023-07-28T10:57:41;27.40;1.00
20463;DHT22;10390;53.566;9.980;2023-07-28T11:00:08;27.40;1.00
20463;DHT22;10390;53.566;9.980;2023-07-28T11:02:43;27.40;1.00
20463;DHT22;10390;53.566;9.980;2023-07-28T11:05:13;27.40;1.00
20463;DHT22;10390;53.566;9.980;2023-07-28T11:07:43;27.40;1.00
20463;DHT22;10390;53.566;9.980;2023-07-28T11:10:13;27.40;1.00
20463;DHT22;10390;53.566;9.980;2023-07-28T11:12:40;27.40;1.00
20463;DHT22;10390;53.566;9.980;2023-07-28T11:15:08;27.40;1.00
20463;DHT22;10390;53.566;9.980;2023-07-28T11:17:46;27.40;1.00
20463;DHT22;10390;53.566;9.980;2023-07-28T11:20:16;27.50;1.00
20463;DHT22;10390;53.566;9.980;2023-07-28T11:22:46;27.50;1.00
20463;DHT22;10390;53.566;9.980;2023-07-28T11:25:12;27.50;1.00
20463;DHT22;10390;53.566;9.980;2023-07-28T11:27:39;27.50;1.00
20463;DHT22;10390;53.566;9.980;2023-07-28T11:30:08;27.50;1.00
20463;DHT22;10390;53.566;9.980;2023-07-28T11:32:36;27.50;1.00
20463;DHT22;10390;53.566;9.980;2023-07-28T11:35:09;27.50;1.00
20463;DHT22;10390;53.566;9.980;2023-07-28T11:37:37;27.60;1.00
20463;DHT22;10390;53.566;9.980;2023-07-28T11:40:05;27.50;1.00
20463;DHT22;10390;53.566;9.980;2023-07-28T11:42:38;27.50;1.00
20463;DHT22;10390;53.566;9.980;2023-07-28T11:45:05;27.50;1.00
20463;DHT22;10390;53.566;9.980;2023-07-28T11:47:31;27.60;1.00
20463;DHT22;10390;53.566;9.980;2023-07-28T11:49:57;27.60;1.00
20463;DHT22;10390;53.566;9.980;2023-07-28T11:52:36;27.60;1.00
20463;DHT22;10390;53.566;9.980;2023-07-28T11:55:04;27.60;1.00
20463;DHT22;10390;53.566;9.980;2023-07-28T11:57:31;27.60;1.00
20463;DHT22;10390;53.566;9.980;2023-07-28T11:59:58;27.60;1.00
20463;DHT22;10390;53.566;9.980;2023-07-28T12:02:27;27.60;1.00
20463;DHT22;10390;53.566;9.980;2023-07-28T12:04:54;27.60;1.00
20463;DHT22;10390;53.566;9.980;2023-07-28T12:07:30;27.60;1.00
20463;DHT22;10390;53.566;9.980;2023-07-28T12:09:57;27.60;1.00
20463;DHT22;10390;53.566;9.980;2023-07-28T12:12:27;27.70;1.00
20463;DHT22;10390;53.566;9.980;2023-07-28T12:14:57;27.60;1.00
20463;DHT22;10390;53.566;9.980;2023-07-28T12:17:30;27.70;1.00
20463;DHT22;10390;53.566;9.980;2023-07-28T12:19:59;27.70;1.00
20463;DHT22;10390;53.566;9.980;2023-07-28T12:22:28;27.70;1.00
20463;DHT22;10390;53.566;9.980;2023-07-28T12:24:54;27.70;1.00
20463;DHT22;10390;53.566;9.980;2023-07-28T12:27:20;27.70;1.00
20463;DHT22;10390;53.566;9.980;2023-07-28T12:29:49;27.70;1.00
20463;DHT22;10390;53.566;9.980;2023-07-28T12:32:15;27.70;1.00
20463;DHT22;10390;53.566;9.980;2023-07-28T12:34:40;27.70;1.00
20463;DHT22;10390;53.566;9.980;2023-07-28T12:37:06;27.80;1.00
20463;DHT22;10390;53.566;9.980;2023-07-28T12:39:32;27.70;1.00
20463;DHT22;10390;53.566;9.980;2023-07-28T12:41:58;27.70;1.00
20463;DHT22;10390;53.566;9.980;2023-07-28T12:44:24;27.70;1.00
20463;DHT22;10390;53.566;9.980;2023-07-28T12:46:49;27.80;1.00
20463;DHT22;10390;53.566;9.980;2023-07-28T12:49:15;27.80;1.00
20463;DHT22;10390;53.566;9.980;2023-07-28T12:51:41;27.70;1.00
20463;DHT22;10390;53.566;9.980;2023-07-28T12:54:07;27.80;1.00
20463;DHT22;10390;53.566;9.980;2023-07-28T12:56:32;27.80;1.00
20463;DHT22;10390;53.566;9.980;2023-07-28T12:58:58;27.80;1.00
20463;DHT22;10390;53.566;9.980;2023-07-28T13:01:24;27.80;1.00
20463;DHT22;10390;53.566;9.980;2023-07-28T13:03:49;27.80;1.00
20463;DHT22;10390;53.566;9.980;2023-07-28T13:06:15;27.80;1.00
20463;DHT22;10390;53.566;9.980;2023-07-28T13:08:40;27.80;1.00
20463;DHT22;10390;53.566;9.980;2023-07-28T13:11:06;27.80;1.00
20463;DHT22;10390;53.566;9.980;2023-07-28T13:13:32;27.80;1.00
20463;DHT22;10390;53.566;9.980;2023-07-28T13:15:58;27.80;1.00
20463;DHT22;10390;53.566;9.980;2023-07-28T13:18:24;27.80;1.00
20463;DHT22;10390;53.566;9.980;2023-07-28T13:20:50;27.80;1.00
20463;DHT22;10390;53.566;9.980;2023-07-28T13:23:16;27.90;1.00
20463;DHT22;10390;53.566;9.980;2023-07-28T13:25:42;27.80;1.00
20463;DHT22;10390;53.566;9.980;2023-07-28T13:28:07;27.80;1.00
20463;DHT22;10390;53.566;9.980;2023-07-28T13:30:36;27.80;1.00
20463;DHT22;10390;53.566;9.980;2023-07-28T13:33:02;27.80;1.00
20463;DHT22;10390;53.566;9.980;2023-07-28T13:35:28;27.90;1.00
20463;DHT22;10390;53.566;9.980;2023-07-28T13:37:54;27.80;1.00
20463;DHT22;10390;53.566;9.980;2023-07-28T13:40:19;27.80;1.00
20463;DHT22;10390;53.566;9.980;2023-07-28T13:42:45;27.80;1.00
20463;DHT22;10390;53.566;9.980;2023-07-28T13:45:11;27.80;1.00
20463;DHT22;10390;53.566;9.980;2023-07-28T13:47:36;27.80;1.00
20463;DHT22;10390;53.566;9.980;2023-07-28T13:50:02;27.80;1.00
20463;DHT22;10390;53.566;9.980;2023-07-28T13:52:27;27.90;1.00
20463;DHT22;10390;53.566;9.980;2023-07-28T13:54:53;27.90;1.00
20463;DHT22;10390;53.566;9.980;2023-07-28T13:57:19;27.90;1.00
20463;DHT22;10390;53.566;9.980;2023-07-28T13:59:44;27.90;1.00
20463;DHT22;10390;53.566;9.980;2023-07-28T14:02:10;27.90;1.00
20463;DHT22;10390;53.566;9.980;2023-07-28T14:04:35;27.90;1.00
20463;DHT22;10390;53.566;9.980;2023-07-28T14:07:01;27.90;1.00
20463;DHT22;10390;53.566;9.980;2023-07-28T14:09:27;27.90;1.00
20463;DHT22;10390;53.566;9.980;2023-07-28T14:11:52;27.90;1.00
20463;DHT22;10390;53.566;9.980;2023-07-28T14:14:18;27.90;1.00
20463;DHT22;10390;53.566;9.980;2023-07-28T14:16:44;27.90;1.00
20463;DHT22;10390;53.566;9.980;2023-07-28T14:19:09;27.90;1.00
20463;DHT22;10390;53.566;9.980;2023-07-28T14:21:35;27.90;1.00
20463;DHT22;10390;53.566;9.980;2023-07-28T14:24:04;28.00;1.00
20463;DHT22;10390;53.566;9.980;2023-07-28T14:26:30;27.90;1.00
20463;DHT22;10390;53.566;9.980;2023-07-28T14:28:56;27.90;1.00
20463;DHT22;10390;53.566;9.980;2023-07-28T14:31:21;27.90;1.00
20463;DHT22;10390;53.566;9.980;2023-07-28T14:33:47;27.90;1.00
20463;DHT22;10390;53.566;9.980;2023-07-28T14:36:12;27.90;1.00
20463;DHT22;10390;53.566;9.980;2023-07-28T14:38:38;28.00;1.00
20463;DHT22;10390;53.566;9.980;2023-07-28T14:41:04;28.00;1.00
20463;DHT22;10390;53.566;9.980;2023-07-28T14:43:29;28.00;1.00
20463;DHT22;10390;53.566;9.980;2023-07-28T14:45:55;28.00;1.00
20463;DHT22;10390;53.566;9.980;2023-07-28T14:48:21;28.00;1.00
20463;DHT22;10390;53.566;9.980;2023-07-28T14:50:47;28.00;1.00
20463;DHT22;10390;53.566;9.980;2023-07-28T14:53:35;28.00;1.00
20463;DHT22;10390;53.566;9.980;2023-07-28T14:56:03;28.00;1.00
20463;DHT22;10390;53.566;9.980;2023-07-28T14:58:29;28.00;1.00
20463;DHT22;10390;53.566;9.980;2023-07-28T15:00:55;28.00;1.00
20463;DHT22;10390;53.566;9.980;2023-07-28T15:03:20;28.00;1.00
20463;DHT22;10390;53.566;9.980;2023-07-28T15:05:46;28.00;1.00
20463;DHT22;10390;53.566;9.980;2023-07-28T15:08:13;28.00;1.00
20463;DHT22;10390;53.566;9.980;2023-07-28T15:10:38;28.00;1.00
20463;DHT22;10390;53.566;9.980;2023-07-28T15:13:04;28.00;1.00
20463;DHT22;10390;53.566;9.980;2023-07-28T15:15:30;28.10;1.00
20463;DHT22;10390;53.566;9.980;2023-07-28T15:17:55;28.10;1.00
20463;DHT22;10390;53.566;9.980;2023-07-28T15:20:21;28.00;1.00
20463;DHT22;10390;53.566;9.980;2023-07-28T15:22:47;28.00;1.00
20463;DHT22;10390;53.566;9.980;2023-07-28T15:25:13;28.00;1.00
20463;DHT22;10390;53.566;9.980;2023-07-28T15:27:42;28.00;1.00
20463;DHT22;10390;53.566;9.980;2023-07-28T15:30:09;28.00;1.00
20463;DHT22;10390;53.566;9.980;2023-07-28T15:32:35;28.00;1.00
20463;DHT22;10390;53.566;9.980;2023-07-28T15:35:01;28.00;1.00
20463;DHT22;10390;53.566;9.980;2023-07-28T15:37:28;28.00;1.00
20463;DHT22;10390;53.566;9.980;2023-07-28T15:39:54;28.00;1.00
20463;DHT22;10390;53.566;9.980;2023-07-28T15:42:20;28.00;1.00
20463;DHT22;10390;53.566;9.980;2023-07-28T15:44:46;28.00;1.00
20463;DHT22;10390;53.566;9.980;2023-07-28T15:47:12;28.00;1.00
20463;DHT22;10390;53.566;9.980;2023-07-28T15:49:37;28.00;1.00
20463;DHT22;10390;53.566;9.980;2023-07-28T15:52:03;28.00;1.00